createdAt,value
2022-10-24T00:01:17.576Z,4.93
2022-10-24T00:03:44.677Z,5.43
2022-10-24T00:06:13.358Z,5.63
2022-10-24T00:08:41.600Z,5.07
2022-10-24T00:11:12.172Z,7.38
2022-10-24T00:13:39.606Z,5.72
2022-10-24T00:16:06.861Z,3.75
2022-10-24T00:18:33.665Z,6.15
2022-10-24T00:21:00.458Z,5.55
2022-10-24T00:23:27.207Z,5.55
2022-10-24T00:25:53.932Z,5.63
2022-10-24T00:28:20.692Z,6.88
2022-10-24T00:30:52.334Z,4.53
2022-10-24T00:33:19.333Z,4.80
2022-10-24T00:35:46.487Z,5.10
2022-10-24T00:38:13.278Z,5.25
2022-10-24T00:40:40.633Z,4.60
2022-10-24T00:43:26.898Z,3.28
2022-10-24T00:45:55.867Z,4.43
2022-10-24T00:48:39.699Z,3.53
2022-10-24T00:51:11.209Z,3.00
2022-10-24T00:53:44.503Z,2.80
2022-10-24T00:56:14.722Z,3.38
2022-10-24T00:58:44.961Z,2.88
2022-10-24T01:01:13.019Z,2.95
2022-10-24T01:03:39.856Z,4.90
2022-10-24T01:06:18.689Z,3.45
2022-10-24T01:09:04.125Z,2.42
2022-10-24T01:11:57.235Z,2.20
2022-10-24T01:14:57.887Z,2.65
2022-10-24T01:17:52.442Z,1.90
2022-10-24T01:20:43.892Z,3.75
2022-10-24T01:23:24.150Z,2.38
2022-10-24T01:25:59.915Z,4.00
2022-10-24T01:28:58.841Z,2.90
2022-10-24T01:31:35.604Z,2.33
2022-10-24T01:34:09.593Z,2.75
2022-10-24T01:36:47.601Z,2.90
2022-10-24T01:39:19.503Z,2.60
2022-10-24T01:41:47.735Z,1.85
2022-10-24T01:44:24.887Z,2.75
2022-10-24T01:47:08.058Z,2.85
2022-10-24T01:49:38.252Z,2.88
2022-10-24T01:52:11.028Z,2.65
2022-10-24T01:54:39.193Z,2.47
2022-10-24T01:57:05.908Z,3.25
2022-10-24T01:59:32.499Z,3.10
2022-10-24T02:02:08.745Z,2.65
2022-10-24T02:04:39.476Z,2.83
2022-10-24T02:07:09.677Z,2.70
2022-10-24T02:09:39.847Z,2.28
2022-10-24T02:12:08.948Z,2.70
2022-10-24T02:14:40.136Z,3.05
2022-10-24T02:17:06.953Z,3.25
2022-10-24T02:19:33.809Z,2.72
2022-10-24T02:22:15.673Z,3.80
2022-10-24T02:24:49.725Z,2.88
2022-10-24T02:27:20.737Z,3.08
2022-10-24T02:29:53.439Z,2.70
2022-10-24T02:32:27.691Z,4.60
2022-10-24T02:34:55.853Z,5.18
2022-10-24T02:37:25.065Z,3.10
2022-10-24T02:39:55.107Z,4.35
2022-10-24T02:42:24.205Z,2.55
2022-10-24T02:44:51.042Z,2.22
2022-10-24T02:47:21.231Z,1.88
2022-10-24T02:49:48.059Z,4.07
2022-10-24T02:52:15.778Z,3.92
2022-10-24T02:54:42.485Z,3.75
2022-10-24T02:57:09.352Z,2.90
2022-10-24T02:59:36.047Z,3.70
2022-10-24T03:02:02.831Z,4.20
2022-10-24T03:04:29.520Z,3.97
2022-10-24T03:06:56.324Z,1.95
2022-10-24T03:09:23.002Z,4.05
2022-10-24T03:11:50.089Z,3.05
2022-10-24T03:14:16.969Z,1.70
2022-10-24T03:16:43.694Z,1.98
2022-10-24T03:19:10.360Z,2.97
2022-10-24T03:21:37.147Z,5.55
2022-10-24T03:24:04.164Z,2.78
2022-10-24T03:26:30.948Z,3.35
2022-10-24T03:28:57.635Z,5.93
2022-10-24T03:31:24.397Z,2.70
2022-10-24T03:33:51.281Z,2.33
2022-10-24T03:36:18.375Z,2.35
2022-10-24T03:38:45.059Z,1.98
2022-10-24T03:41:11.805Z,3.58
2022-10-24T03:43:38.485Z,2.25
2022-10-24T03:46:05.341Z,2.10
2022-10-24T03:48:32.231Z,2.15
2022-10-24T03:50:58.920Z,3.50
2022-10-24T03:53:25.811Z,3.83
2022-10-24T03:55:52.585Z,3.35
2022-10-24T03:58:19.274Z,2.97
2022-10-24T04:00:46.038Z,3.40
2022-10-24T04:03:12.700Z,3.10
2022-10-24T04:05:40.261Z,3.33
2022-10-24T04:08:06.995Z,2.53
2022-10-24T04:10:33.843Z,2.25
2022-10-24T04:13:00.679Z,2.17
2022-10-24T04:15:27.546Z,1.95
2022-10-24T04:17:54.263Z,1.90
2022-10-24T04:20:22.690Z,3.75
2022-10-24T04:22:49.785Z,2.85
2022-10-24T04:25:16.885Z,2.25
2022-10-24T04:27:44.081Z,3.53
2022-10-24T04:30:16.398Z,2.70
2022-10-24T04:32:44.518Z,1.70
2022-10-24T04:35:12.028Z,2.20
2022-10-24T04:37:38.776Z,2.50
2022-10-24T04:40:06.103Z,3.17
2022-10-24T04:42:32.960Z,2.78
2022-10-24T04:44:59.711Z,2.67
2022-10-24T04:47:26.364Z,3.15
2022-10-24T04:49:53.153Z,2.15
2022-10-24T04:52:19.887Z,2.72
2022-10-24T04:54:46.593Z,1.70
2022-10-24T04:57:13.319Z,1.75
2022-10-24T04:59:39.983Z,3.08
2022-10-24T05:02:06.739Z,2.08
2022-10-24T05:04:33.441Z,2.90
2022-10-24T05:07:00.202Z,2.90
2022-10-24T05:09:26.863Z,2.08
2022-10-24T05:11:57.348Z,2.53
2022-10-24T05:14:24.659Z,1.92
2022-10-24T05:16:51.408Z,2.83
2022-10-24T05:19:19.773Z,1.63
2022-10-24T05:21:46.888Z,2.60
2022-10-24T05:24:14.064Z,4.03
2022-10-24T05:26:40.813Z,2.58
2022-10-24T05:31:34.450Z,3.35
2022-10-24T05:34:01.209Z,2.72
2022-10-24T05:36:27.886Z,4.10
2022-10-24T05:38:54.578Z,2.40
2022-10-24T05:41:21.343Z,2.60
2022-10-24T05:43:48.028Z,2.97
2022-10-24T05:46:14.700Z,2.50
2022-10-24T05:48:41.388Z,2.55
2022-10-24T05:51:08.065Z,2.30
2022-10-24T05:53:34.830Z,2.60
2022-10-24T05:56:01.611Z,2.58
2022-10-24T05:58:28.347Z,2.55
2022-10-24T06:00:55.031Z,2.58
2022-10-24T06:03:22.395Z,2.72
2022-10-24T06:05:50.244Z,2.55
2022-10-24T06:08:17.397Z,2.95
2022-10-24T06:10:49.597Z,2.67
2022-10-24T06:13:17.116Z,2.35
2022-10-24T11:56:18.647Z,4.43
2022-10-24T11:58:56.594Z,4.25
2022-10-24T12:02:02.382Z,5.18
2022-10-24T12:04:56.917Z,6.10
2022-10-24T12:07:56.829Z,6.97
2022-10-24T12:10:40.979Z,4.75
2022-10-24T12:13:26.381Z,8.05
2022-10-24T12:16:19.521Z,5.72
2022-10-24T12:18:50.840Z,6.70
2022-10-24T12:21:26.384Z,5.18
2022-10-24T12:24:01.657Z,5.63
2022-10-24T12:26:31.417Z,7.50
2022-10-24T12:29:01.093Z,5.22
2022-10-24T12:31:33.144Z,5.20
2022-10-24T12:34:23.157Z,4.57
2022-10-24T12:37:09.757Z,4.65
2022-10-24T12:39:38.205Z,4.70
2022-10-24T12:42:06.021Z,4.68
2022-10-24T12:44:32.843Z,3.85
2022-10-24T12:47:37.321Z,3.63
2022-10-24T12:50:22.245Z,3.90
2022-10-24T12:52:50.442Z,6.28
2022-10-24T12:55:49.452Z,4.38
2022-10-24T12:58:34.828Z,3.63
2022-10-24T14:29:32.986Z,1.17
2022-10-24T17:27:33.801Z,1.92
2022-10-24T18:55:11.777Z,5.03
2022-10-24T19:03:29.577Z,3.42
2022-10-24T19:06:25.117Z,2.97
2022-10-24T19:08:52.463Z,3.15
2022-10-24T19:11:20.048Z,2.55
2022-10-24T19:13:47.174Z,2.85
2022-10-24T19:16:30.258Z,2.30
2022-10-24T19:19:01.131Z,1.85
2022-10-24T19:21:30.835Z,1.80
2022-10-24T19:23:57.921Z,2.70
2022-10-24T19:26:28.073Z,2.85
2022-10-24T19:28:55.086Z,2.25
2022-10-24T19:31:24.915Z,2.10
2022-10-24T19:33:54.436Z,1.70
2022-10-24T19:36:21.361Z,2.25
2022-10-24T19:38:50.557Z,1.80
2022-10-24T19:41:20.386Z,1.60
2022-10-24T19:43:50.922Z,1.90
2022-10-24T19:46:20.337Z,1.60
2022-10-24T19:48:49.637Z,1.67
2022-10-24T19:51:20.138Z,1.30
2022-10-24T19:53:51.956Z,1.73
2022-10-24T19:56:25.355Z,1.80
2022-10-24T19:58:55.330Z,1.48
2022-10-24T20:01:30.362Z,1.80
2022-10-24T20:04:01.863Z,1.70
2022-10-24T20:06:29.041Z,2.38
2022-10-24T20:08:57.418Z,1.90
2022-10-24T20:11:24.263Z,1.85
2022-10-24T20:13:51.178Z,1.80
2022-10-24T20:16:19.816Z,1.30
2022-10-24T20:18:49.723Z,1.60
2022-10-24T20:21:19.414Z,1.40
2022-10-24T20:23:48.805Z,1.30
2022-10-24T20:26:23.719Z,1.30
2022-10-24T20:28:53.181Z,1.27
2022-10-24T20:32:21.696Z,1.33
2022-10-24T20:35:05.471Z,1.25
2022-10-24T20:53:20.751Z,1.98
2022-10-24T20:55:47.682Z,1.80
2022-10-24T21:11:29.884Z,2.30
2022-10-24T21:13:59.712Z,1.98
2022-10-24T21:16:27.254Z,1.63
2022-10-24T21:18:56.396Z,1.40
2022-10-24T21:21:24.333Z,1.63
2022-10-24T21:23:53.353Z,1.50
2022-10-24T21:26:21.071Z,1.58
2022-10-24T21:28:48.312Z,1.42
2022-10-24T21:31:18.083Z,1.35
2022-10-24T21:33:45.503Z,1.13
2022-10-24T21:36:15.049Z,1.80
2022-10-24T21:38:45.831Z,1.15
2022-10-24T21:41:12.608Z,1.10
2022-10-24T21:43:41.347Z,1.48
2022-10-24T21:46:16.029Z,1.40
2022-10-24T21:48:43.983Z,1.10
2022-10-24T21:51:22.394Z,1.10
2022-10-24T21:53:53.848Z,1.10
2022-10-24T21:56:23.201Z,1.23
2022-10-24T21:58:58.006Z,1.20
2022-10-24T22:01:27.063Z,0.93
2022-10-24T22:04:02.910Z,1.63
2022-10-24T22:06:33.584Z,1.20
2022-10-24T22:09:01.544Z,1.15
2022-10-24T22:11:30.554Z,1.30
2022-10-24T22:13:58.542Z,0.90
2022-10-24T22:16:27.685Z,1.05
2022-10-24T22:18:54.958Z,0.80
2022-10-24T22:21:35.379Z,0.90
2022-10-24T22:24:09.066Z,0.80
2022-10-24T22:26:37.103Z,1.00
2022-10-24T22:29:05.550Z,0.80
2022-10-24T22:31:32.868Z,0.80
2022-10-24T22:33:59.955Z,0.80
2022-10-24T22:36:33.051Z,1.00
2022-10-24T22:39:00.176Z,1.05
2022-10-24T22:41:28.357Z,0.90
2022-10-24T22:43:55.445Z,1.20
2022-10-24T22:46:25.195Z,0.90
2022-10-24T22:48:57.662Z,0.90
2022-10-24T22:51:24.867Z,0.90
2022-10-24T22:53:52.090Z,0.95
2022-10-24T22:59:04.152Z,0.80
2022-10-24T23:02:07.643Z,1.02
2022-10-24T23:04:43.296Z,1.10
2022-10-24T23:07:16.282Z,1.08
2022-10-24T23:09:43.045Z,0.90
2022-10-24T23:12:14.678Z,0.90
2022-10-24T23:14:42.515Z,0.90
2022-10-24T23:17:11.802Z,0.80
2022-10-24T23:19:43.546Z,1.10
2022-10-24T23:22:32.224Z,0.80
2022-10-24T23:25:01.117Z,1.13
2022-10-24T23:27:35.635Z,0.80
2022-10-24T23:30:05.480Z,0.90
2022-10-24T23:32:38.024Z,0.80
2022-10-24T23:35:05.465Z,0.93
2022-10-24T23:37:32.684Z,0.77
2022-10-24T23:40:01.451Z,0.95
2022-10-24T23:42:28.607Z,0.90
2022-10-24T23:44:55.856Z,0.90
2022-10-24T23:47:28.543Z,0.90
2022-10-24T23:50:03.016Z,1.13
2022-10-24T23:53:03.451Z,0.70
2022-10-24T23:55:30.680Z,0.93
2022-10-24T23:57:57.560Z,0.85
